sensor_id;sensor_type;location;lat;lon;timestamp;pressure;altitude;pressure_sealevel;temperature;humidity
36062;BME280;22123;52.412;20.970;2023-07-29T00:01:00;99899.38;;;14.26;100.00
36062;BME280;22123;52.412;20.970;2023-07-29T00:03:26;99929.31;;;14.45;100.00
36062;BME280;22123;52.412;20.970;2023-07-29T00:05:52;99909.16;;;14.21;100.00
36062;BME280;22123;52.412;20.970;2023-07-29T00:08:18;99903.13;;;14.12;100.00
36062;BME280;22123;52.412;20.970;2023-07-29T00:10:44;99936.41;;;14.33;100.00
36062;BME280;22123;52.412;20.970;2023-07-29T00:13:10;99918.53;;;14.18;100.00
36062;BME280;22123;52.412;20.970;2023-07-29T00:15:36;99926.41;;;14.13;100.00
36062;BME280;22123;52.412;20.970;2023-07-29T00:18:01;99947.88;;;14.21;100.00
36062;BME280;22123;52.412;20.970;2023-07-29T00:20:27;99913.75;;;13.94;100.00
36062;BME280;22123;52.412;20.970;2023-07-29T00:22:53;99937.88;;;14.02;100.00
36062;BME280;22123;52.412;20.970;2023-07-29T00:25:19;99908.34;;;13.80;100.00
36062;BME280;22123;52.412;20.970;2023-07-29T00:27:45;99933.50;;;13.87;100.00
36062;BME280;22123;52.412;20.970;2023-07-29T00:30:11;99938.06;;;13.87;100.00
36062;BME280;22123;52.412;20.970;2023-07-29T00:32:37;99941.00;;;13.85;100.00
36062;BME280;22123;52.412;20.970;2023-07-29T00:35:03;99923.72;;;13.73;100.00
36062;BME280;22123;52.412;20.970;2023-07-29T00:37:29;99936.84;;;13.76;100.00
36062;BME280;22123;52.412;20.970;2023-07-29T00:39:56;99919.53;;;13.64;100.00
36062;BME280;22123;52.412;20.970;2023-07-29T00:42:22;99952.84;;;13.78;100.00
36062;BME280;22123;52.412;20.970;2023-07-29T00:44:48;99933.50;;;13.67;100.00
36062;BME280;22123;52.412;20.970;2023-07-29T00:47:15;99956.59;;;13.77;100.00
36062;BME280;22123;52.412;20.970;2023-07-29T00:49:41;99924.09;;;13.50;100.00
36062;BME280;22123;52.412;20.970;2023-07-29T00:52:08;99936.78;;;13.56;100.00
36062;BME280;22123;52.412;20.970;2023-07-29T00:54:34;99941.16;;;13.50;100.00
36062;BME280;22123;52.412;20.970;2023-07-29T00:57:00;99951.13;;;13.50;100.00
36062;BME280;22123;52.412;20.970;2023-07-29T00:59:25;99962.38;;;13.53;100.00
36062;BME280;22123;52.412;20.970;2023-07-29T01:01:51;99938.41;;;13.37;100.00
36062;BME280;22123;52.412;20.970;2023-07-29T01:04:17;99931.91;;;13.31;100.00
36062;BME280;22123;52.412;20.970;2023-07-29T01:07:09;99911.69;;;13.14;100.00
36062;BME280;22123;52.412;20.970;2023-07-29T01:12:44;99931.22;;;13.16;100.00
36062;BME280;22123;52.412;20.970;2023-07-29T01:15:26;99957.88;;;13.32;100.00
36062;BME280;22123;52.412;20.970;2023-07-29T01:18:11;99908.06;;;12.93;100.00
36062;BME280;22123;52.412;20.970;2023-07-29T01:20:40;99971.00;;;13.29;100.00
36062;BME280;22123;52.412;20.970;2023-07-29T01:23:08;99934.09;;;13.08;100.00
36062;BME280;22123;52.412;20.970;2023-07-29T01:25:34;99978.03;;;13.23;100.00
36062;BME280;22123;52.412;20.970;2023-07-29T01:28:00;99942.19;;;13.01;100.00
36062;BME280;22123;52.412;20.970;2023-07-29T01:30:31;99985.94;;;13.18;100.00
36062;BME280;22123;52.412;20.970;2023-07-29T01:35:50;99938.16;;;12.83;100.00
36062;BME280;22123;52.412;20.970;2023-07-29T01:38:18;99978.81;;;13.10;100.00
36062;BME280;22123;52.412;20.970;2023-07-29T01:40:44;99943.78;;;12.88;100.00
36062;BME280;22123;52.412;20.970;2023-07-29T01:43:11;99936.84;;;12.73;100.00
36062;BME280;22123;52.412;20.970;2023-07-29T01:45:38;99957.91;;;12.84;100.00
36062;BME280;22123;52.412;20.970;2023-07-29T01:48:07;99964.13;;;12.84;100.00
36062;BME280;22123;52.412;20.970;2023-07-29T01:50:36;99969.56;;;12.91;100.00
36062;BME280;22123;52.412;20.970;2023-07-29T01:53:02;99966.81;;;12.84;100.00
36062;BME280;22123;52.412;20.970;2023-07-29T01:55:29;99990.38;;;12.97;100.00
36062;BME280;22123;52.412;20.970;2023-07-29T01:57:55;99937.25;;;12.69;100.00
36062;BME280;22123;52.412;20.970;2023-07-29T02:00:21;99958.25;;;12.74;100.00
36062;BME280;22123;52.412;20.970;2023-07-29T02:02:47;99971.19;;;12.85;100.00
36062;BME280;22123;52.412;20.970;2023-07-29T02:05:12;99957.16;;;12.68;100.00
36062;BME280;22123;52.412;20.970;2023-07-29T02:07:38;99966.16;;;12.76;100.00
36062;BME280;22123;52.412;20.970;2023-07-29T02:10:04;99958.44;;;12.66;100.00
36062;BME280;22123;52.412;20.970;2023-07-29T02:12:30;99999.69;;;12.88;100.00
36062;BME280;22123;52.412;20.970;2023-07-29T02:14:56;99971.94;;;12.66;100.00
36062;BME280;22123;52.412;20.970;2023-07-29T02:17:22;99954.38;;;12.48;100.00
36062;BME280;22123;52.412;20.970;2023-07-29T02:19:48;99979.78;;;12.61;100.00
36062;BME280;22123;52.412;20.970;2023-07-29T02:22:17;100002.72;;;12.72;100.00
36062;BME280;22123;52.412;20.970;2023-07-29T02:24:43;100020.16;;;12.76;100.00
36062;BME280;22123;52.412;20.970;2023-07-29T02:27:08;100010.41;;;12.75;100.00
36062;BME280;22123;52.412;20.970;2023-07-29T02:29:34;100014.97;;;12.74;100.00
36062;BME280;22123;52.412;20.970;2023-07-29T02:32:00;99982.00;;;12.50;100.00
36062;BME280;22123;52.412;20.970;2023-07-29T02:34:26;100001.38;;;12.61;100.00
36062;BME280;22123;52.412;20.970;2023-07-29T02:36:52;99985.47;;;12.44;100.00
36062;BME280;22123;52.412;20.970;2023-07-29T02:39:18;99983.81;;;12.43;100.00
36062;BME280;22123;52.412;20.970;2023-07-29T02:41:44;99997.91;;;12.39;100.00
36062;BME280;22123;52.412;20.970;2023-07-29T02:44:10;99987.28;;;12.37;100.00
36062;BME280;22123;52.412;20.970;2023-07-29T02:46:35;99987.28;;;12.37;100.00
36062;BME280;22123;52.412;20.970;2023-07-29T02:49:02;100031.28;;;12.59;100.00
36062;BME280;22123;52.412;20.970;2023-07-29T02:51:28;99972.44;;;12.26;100.00
36062;BME280;22123;52.412;20.970;2023-07-29T02:53:54;100002.69;;;12.43;100.00
36062;BME280;22123;52.412;20.970;2023-07-29T02:56:20;99998.09;;;12.37;100.00
36062;BME280;22123;52.412;20.970;2023-07-29T02:58:46;100020.19;;;12.47;100.00
36062;BME280;22123;52.412;20.970;2023-07-29T03:01:12;100026.88;;;12.51;100.00
36062;BME280;22123;52.412;20.970;2023-07-29T03:03:38;100017.41;;;12.41;100.00
36062;BME280;22123;52.412;20.970;2023-07-29T03:06:07;100028.22;;;12.41;100.00
36062;BME280;22123;52.412;20.970;2023-07-29T03:08:34;100035.72;;;12.45;100.00
36062;BME280;22123;52.412;20.970;2023-07-29T03:11:09;100005.03;;;12.25;100.00
36062;BME280;22123;52.412;20.970;2023-07-29T03:13:35;100012.22;;;12.39;100.00
36062;BME280;22123;52.412;20.970;2023-07-29T03:16:08;99997.63;;;12.33;100.00
36062;BME280;22123;52.412;20.970;2023-07-29T03:18:34;100035.00;;;12.58;100.00
36062;BME280;22123;52.412;20.970;2023-07-29T03:21:00;100025.38;;;12.49;100.00
36062;BME280;22123;52.412;20.970;2023-07-29T03:23:28;100019.09;;;12.42;100.00
36062;BME280;22123;52.412;20.970;2023-07-29T03:25:58;99997.78;;;12.25;100.00
36062;BME280;22123;52.412;20.970;2023-07-29T03:28:26;100024.03;;;12.38;100.00
36062;BME280;22123;52.412;20.970;2023-07-29T03:30:52;100022.63;;;12.42;100.00
36062;BME280;22123;52.412;20.970;2023-07-29T03:33:18;100017.63;;;12.39;100.00
36062;BME280;22123;52.412;20.970;2023-07-29T03:35:43;100025.00;;;12.52;100.00
36062;BME280;22123;52.412;20.970;2023-07-29T03:38:10;100010.41;;;12.46;100.00
36062;BME280;22123;52.412;20.970;2023-07-29T03:40:36;100017.72;;;12.52;100.00
36062;BME280;22123;52.412;20.970;2023-07-29T03:43:02;100032.56;;;12.63;100.00
36062;BME280;22123;52.412;20.970;2023-07-29T03:45:28;100044.88;;;12.73;100.00
36062;BME280;22123;52.412;20.970;2023-07-29T03:47:54;100040.25;;;12.66;100.00
36062;BME280;22123;52.412;20.970;2023-07-29T03:50:20;100018.75;;;12.51;100.00
36062;BME280;22123;52.412;20.970;2023-07-29T03:52:45;100025.69;;;12.61;100.00
36062;BME280;22123;52.412;20.970;2023-07-29T03:55:11;100044.25;;;12.70;100.00
36062;BME280;22123;52.412;20.970;2023-07-29T03:57:37;100041.75;;;12.69;100.00
36062;BME280;22123;52.412;20.970;2023-07-29T04:00:04;100039.28;;;12.74;100.00
36062;BME280;22123;52.412;20.970;2023-07-29T04:02:30;100065.81;;;12.92;100.00
36062;BME280;22123;52.412;20.970;2023-07-29T04:04:56;100034.56;;;12.83;100.00
36062;BME280;22123;52.412;20.970;2023-07-29T04:07:21;100059.66;;;13.05;100.00
36062;BME280;22123;52.412;20.970;2023-07-29T04:09:47;100058.84;;;13.11;100.00
36062;BME280;22123;52.412;20.970;2023-07-29T04:12:13;100077.63;;;13.26;100.00
36062;BME280;22123;52.412;20.970;2023-07-29T04:14:39;100078.50;;;13.33;100.00
36062;BME280;22123;52.412;20.970;2023-07-29T04:17:05;100060.81;;;13.31;100.00
36062;BME280;22123;52.412;20.970;2023-07-29T04:19:31;100052.09;;;13.29;100.00
36062;BME280;22123;52.412;20.970;2023-07-29T04:21:57;100059.00;;;13.38;100.00
36062;BME280;22123;52.412;20.970;2023-07-29T04:24:23;100046.28;;;13.32;100.00
36062;BME280;22123;52.412;20.970;2023-07-29T04:26:49;100057.16;;;13.38;100.00
36062;BME280;22123;52.412;20.970;2023-07-29T04:29:15;100043.66;;;13.38;100.00
36062;BME280;22123;52.412;20.970;2023-07-29T04:31:41;100065.94;;;13.54;100.00
36062;BME280;22123;52.412;20.970;2023-07-29T04:34:06;100070.38;;;13.62;100.00
36062;BME280;22123;52.412;20.970;2023-07-29T04:36:32;100086.19;;;13.71;100.00
36062;BME280;22123;52.412;20.970;2023-07-29T04:38:58;100098.78;;;13.93;100.00
36062;BME280;22123;52.412;20.970;2023-07-29T04:41:24;100087.53;;;13.96;100.00
36062;BME280;22123;52.412;20.970;2023-07-29T04:43:50;100061.91;;;13.91;100.00
36062;BME280;22123;52.412;20.970;2023-07-29T04:46:16;100090.50;;;14.14;100.00
36062;BME280;22123;52.412;20.970;2023-07-29T04:48:42;100071.97;;;14.11;100.00
36062;BME280;22123;52.412;20.970;2023-07-29T04:51:07;100098.03;;;14.32;100.00
36062;BME280;22123;52.412;20.970;2023-07-29T04:53:33;100118.06;;;14.51;100.00
36062;BME280;22123;52.412;20.970;2023-07-29T04:55:59;100103.25;;;14.40;100.00
36062;BME280;22123;52.412;20.970;2023-07-29T04:58:25;100119.53;;;14.60;100.00
36062;BME280;22123;52.412;20.970;2023-07-29T05:00:51;100079.31;;;14.44;100.00
36062;BME280;22123;52.412;20.970;2023-07-29T05:03:17;100098.28;;;14.57;100.00
36062;BME280;22123;52.412;20.970;2023-07-29T05:05:43;100083.47;;;14.53;100.00
36062;BME280;22123;52.412;20.970;2023-07-29T05:08:09;100119.97;;;14.84;100.00
36062;BME280;22123;52.412;20.970;2023-07-29T05:10:34;100118.94;;;14.85;100.00
36062;BME280;22123;52.412;20.970;2023-07-29T05:13:00;100102.69;;;14.85;100.00
36062;BME280;22123;52.412;20.970;2023-07-29T05:15:26;100076.22;;;14.74;100.00
36062;BME280;22123;52.412;20.970;2023-07-29T05:17:52;100097.47;;;14.84;100.00
36062;BME280;22123;52.412;20.970;2023-07-29T05:20:18;100127.69;;;15.07;100.00
36062;BME280;22123;52.412;20.970;2023-07-29T05:22:44;100109.56;;;15.01;100.00
36062;BME280;22123;52.412;20.970;2023-07-29T05:25:10;100124.16;;;15.13;100.00
36062;BME280;22123;52.412;20.970;2023-07-29T05:27:36;100111.19;;;15.09;100.00
36062;BME280;22123;52.412;20.970;2023-07-29T05:30:02;100091.00;;;14.98;100.00
36062;BME280;22123;52.412;20.970;2023-07-29T05:32:27;100098.06;;;15.06;100.00
36062;BME280;22123;52.412;20.970;2023-07-29T05:34:53;100128.91;;;15.32;100.00
36062;BME280;22123;52.412;20.970;2023-07-29T05:37:19;100125.16;;;15.33;100.00
36062;BME280;22123;52.412;20.970;2023-07-29T05:39:45;100138.91;;;15.44;100.00
36062;BME280;22123;52.412;20.970;2023-07-29T05:42:10;100111.16;;;15.29;100.00
36062;BME280;22123;52.412;20.970;2023-07-29T05:44:36;100131.75;;;15.57;100.00
36062;BME280;22123;52.412;20.970;2023-07-29T05:47:02;100118.22;;;15.50;100.00
36062;BME280;22123;52.412;20.970;2023-07-29T05:49:28;100122.97;;;15.68;100.00
36062;BME280;22123;52.412;20.970;2023-07-29T05:51:53;100108.16;;;15.64;100.00
36062;BME280;22123;52.412;20.970;2023-07-29T05:54:19;100129.44;;;15.80;100.00
36062;BME280;22123;52.412;20.970;2023-07-29T05:56:45;100135.06;;;15.79;100.00
36062;BME280;22123;52.412;20.970;2023-07-29T05:59:11;100148.81;;;15.91;100.00
36062;BME280;22123;52.412;20.970;2023-07-29T06:01:37;100153.00;;;15.87;100.00
36062;BME280;22123;52.412;20.970;2023-07-29T06:04:02;100157.75;;;15.91;100.00
36062;BME280;22123;52.412;20.970;2023-07-29T06:06:28;100116.06;;;15.65;100.00
36062;BME280;22123;52.412;20.970;2023-07-29T06:08:54;100164.41;;;16.02;100.00
36062;BME280;22123;52.412;20.970;2023-07-29T06:11:20;100086.44;;;15.71;100.00
36062;BME280;22123;52.412;20.970;2023-07-29T06:13:46;100158.47;;;16.25;100.00
36062;BME280;22123;52.412;20.970;2023-07-29T06:16:14;100154.25;;;16.29;100.00
36062;BME280;22123;52.412;20.970;2023-07-29T06:18:40;100133.38;;;16.23;100.00
36062;BME280;22123;52.412;20.970;2023-07-29T06:21:05;100144.03;;;16.25;100.00
36062;BME280;22123;52.412;20.970;2023-07-29T06:23:31;100138.00;;;16.23;100.00
36062;BME280;22123;52.412;20.970;2023-07-29T06:25:57;100166.31;;;16.40;100.00
36062;BME280;22123;52.412;20.970;2023-07-29T06:28:23;100132.91;;;15.94;100.00
36062;BME280;22123;52.412;20.970;2023-07-29T06:30:49;100146.47;;;16.01;100.00
36062;BME280;22123;52.412;20.970;2023-07-29T06:33:14;100181.91;;;16.13;100.00
36062;BME280;22123;52.412;20.970;2023-07-29T06:35:41;100156.06;;;15.97;100.00
36062;BME280;22123;52.412;20.970;2023-07-29T06:38:07;100147.56;;;15.87;100.00
36062;BME280;22123;52.412;20.970;2023-07-29T06:40:32;100184.22;;;16.09;100.00
36062;BME280;22123;52.412;20.970;2023-07-29T06:42:58;100147.97;;;15.90;100.00
36062;BME280;22123;52.412;20.970;2023-07-29T06:45:24;100187.53;;;16.18;100.00
36062;BME280;22123;52.412;20.970;2023-07-29T06:47:50;100142.34;;;15.92;100.00
36062;BME280;22123;52.412;20.970;2023-07-29T06:50:15;100188.19;;;16.13;100.00
36062;BME280;22123;52.412;20.970;2023-07-29T06:52:41;100156.13;;;15.90;100.00
36062;BME280;22123;52.412;20.970;2023-07-29T06:55:07;100194.81;;;16.17;100.00
36062;BME280;22123;52.412;20.970;2023-07-29T06:57:33;100179.03;;;16.08;100.00
36062;BME280;22123;52.412;20.970;2023-07-29T06:59:59;100196.06;;;16.22;100.00
36062;BME280;22123;52.412;20.970;2023-07-29T07:02:24;100173.75;;;16.13;100.00
36062;BME280;22123;52.412;20.970;2023-07-29T07:04:50;100184.53;;;16.33;100.00
36062;BME280;22123;52.412;20.970;2023-07-29T07:07:16;100171.16;;;16.31;100.00
36062;BME280;22123;52.412;20.970;2023-07-29T07:09:42;100190.91;;;16.52;100.00
36062;BME280;22123;52.412;20.970;2023-07-29T07:12:07;100155.63;;;16.45;100.00
36062;BME280;22123;52.412;20.970;2023-07-29T07:14:33;100184.41;;;16.85;100.00
36062;BME280;22123;52.412;20.970;2023-07-29T07:16:59;100149.75;;;16.80;100.00
36062;BME280;22123;52.412;20.970;2023-07-29T07:19:25;100174.22;;;17.06;100.00
36062;BME280;22123;52.412;20.970;2023-07-29T07:21:51;100183.72;;;17.21;100.00
36062;BME280;22123;52.412;20.970;2023-07-29T07:24:16;100153.25;;;17.13;100.00
36062;BME280;22123;52.412;20.970;2023-07-29T07:26:42;100173.66;;;17.47;100.00
36062;BME280;22123;52.412;20.970;2023-07-29T07:29:08;100183.72;;;17.47;100.00
36062;BME280;22123;52.412;20.970;2023-07-29T07:31:34;100170.78;;;17.61;100.00
36062;BME280;22123;52.412;20.970;2023-07-29T07:34:00;100155.50;;;17.60;100.00
36062;BME280;22123;52.412;20.970;2023-07-29T07:36:25;100165.66;;;17.89;100.00
36062;BME280;22123;52.412;20.970;2023-07-29T07:38:51;100171.09;;;18.08;100.00
36062;BME280;22123;52.412;20.970;2023-07-29T07:41:17;100165.66;;;18.08;100.00
36062;BME280;22123;52.412;20.970;2023-07-29T07:43:43;100155.28;;;18.17;100.00
36062;BME280;22123;52.412;20.970;2023-07-29T07:46:09;100180.31;;;18.56;100.00
36062;BME280;22123;52.412;20.970;2023-07-29T07:48:35;100148.34;;;18.63;100.00
36062;BME280;22123;52.412;20.970;2023-07-29T07:51:09;100152.47;;;18.96;100.00
36062;BME280;22123;52.412;20.970;2023-07-29T07:53:35;100171.56;;;19.20;100.00
36062;BME280;22123;52.412;20.970;2023-07-29T07:56:01;100137.63;;;18.92;100.00
36062;BME280;22123;52.412;20.970;2023-07-29T07:58:27;100143.09;;;19.39;100.00
36062;BME280;22123;52.412;20.970;2023-07-29T08:01:03;100169.25;;;20.00;100.00
36062;BME280;22123;52.412;20.970;2023-07-29T08:03:29;100134.56;;;20.00;100.00
36062;BME280;22123;52.412;20.970;2023-07-29T08:05:55;100159.56;;;20.49;100.00
36062;BME280;22123;52.412;20.970;2023-07-29T08:08:21;100161.88;;;20.58;100.00
36062;BME280;22123;52.412;20.970;2023-07-29T08:10:47;100144.03;;;20.84;100.00
36062;BME280;22123;52.412;20.970;2023-07-29T08:13:13;100152.09;;;21.25;100.00
36062;BME280;22123;52.412;20.970;2023-07-29T08:15:39;100146.72;;;20.96;100.00
36062;BME280;22123;52.412;20.970;2023-07-29T08:18:05;100147.31;;;21.37;100.00
36062;BME280;22123;52.412;20.970;2023-07-29T08:20:31;100145.50;;;21.26;100.00
36062;BME280;22123;52.412;20.970;2023-07-29T08:22:56;100154.13;;;21.51;100.00
36062;BME280;22123;52.412;20.970;2023-07-29T08:25:22;100167.31;;;21.54;100.00
36062;BME280;22123;52.412;20.970;2023-07-29T08:27:48;100171.31;;;21.30;100.00
36062;BME280;22123;52.412;20.970;2023-07-29T08:30:14;100144.09;;;21.23;100.00
36062;BME280;22123;52.412;20.970;2023-07-29T08:32:40;100175.22;;;21.34;100.00
36062;BME280;22123;52.412;20.970;2023-07-29T08:35:08;100140.25;;;21.02;100.00
36062;BME280;22123;52.412;20.970;2023-07-29T08:37:34;100148.03;;;21.10;100.00
36062;BME280;22123;52.412;20.970;2023-07-29T08:40:00;100143.22;;;21.00;100.00
36062;BME280;22123;52.412;20.970;2023-07-29T08:42:29;100095.75;;;20.61;100.00
36062;BME280;22123;52.412;20.970;2023-07-29T08:45:01;100139.41;;;20.84;100.00
36062;BME280;22123;52.412;20.970;2023-07-29T08:47:31;100120.34;;;20.73;100.00
36062;BME280;22123;52.412;20.970;2023-07-29T08:49:57;100140.31;;;20.73;100.00
36062;BME280;22123;52.412;20.970;2023-07-29T08:52:25;100160.88;;;20.93;100.00
36062;BME280;22123;52.412;20.970;2023-07-29T08:54:52;100167.09;;;21.22;100.00
36062;BME280;22123;52.412;20.970;2023-07-29T08:57:19;100119.56;;;21.28;100.00
36062;BME280;22123;52.412;20.970;2023-07-29T08:59:45;100135.34;;;21.43;100.00
36062;BME280;22123;52.412;20.970;2023-07-29T09:02:12;100131.47;;;21.56;100.00
36062;BME280;22123;52.412;20.970;2023-07-29T09:04:37;100148.97;;;21.55;100.00
36062;BME280;22123;52.412;20.970;2023-07-29T09:07:05;100141.47;;;21.50;100.00
36062;BME280;22123;52.412;20.970;2023-07-29T09:09:31;100151.06;;;21.31;100.00
36062;BME280;22123;52.412;20.970;2023-07-29T09:11:57;100164.50;;;21.32;100.00
36062;BME280;22123;52.412;20.970;2023-07-29T09:14:24;100130.44;;;20.89;100.00
36062;BME280;22123;52.412;20.970;2023-07-29T09:16:49;100141.06;;;20.86;100.00
36062;BME280;22123;52.412;20.970;2023-07-29T09:19:16;100165.09;;;20.83;100.00
36062;BME280;22123;52.412;20.970;2023-07-29T09:21:42;100132.84;;;20.69;100.00
36062;BME280;22123;52.412;20.970;2023-07-29T09:24:08;100155.22;;;20.82;100.00
36062;BME280;22123;52.412;20.970;2023-07-29T09:26:34;100138.81;;;20.82;100.00
36062;BME280;22123;52.412;20.970;2023-07-29T09:29:00;100169.94;;;21.10;100.00
36062;BME280;22123;52.412;20.970;2023-07-29T09:31:27;100161.78;;;20.98;100.00
36062;BME280;22123;52.412;20.970;2023-07-29T09:33:58;100127.13;;;20.70;100.00
36062;BME280;22123;52.412;20.970;2023-07-29T09:36:25;100152.00;;;20.69;100.00
36062;BME280;22123;52.412;20.970;2023-07-29T09:38:55;100147.03;;;20.99;100.00
36062;BME280;22123;52.412;20.970;2023-07-29T09:41:27;100167.00;;;21.17;100.00
36062;BME280;22123;52.412;20.970;2023-07-29T09:44:01;100151.59;;;21.11;100.00
36062;BME280;22123;52.412;20.970;2023-07-29T09:46:37;100153.16;;;21.24;100.00
36062;BME280;22123;52.412;20.970;2023-07-29T09:49:04;100151.72;;;21.38;100.00
36062;BME280;22123;52.412;20.970;2023-07-29T09:51:30;100123.88;;;21.24;100.00
36062;BME280;22123;52.412;20.970;2023-07-29T09:53:56;100092.66;;;21.03;100.00
36062;BME280;22123;52.412;20.970;2023-07-29T09:56:26;100132.28;;;21.17;100.00
36062;BME280;22123;52.412;20.970;2023-07-29T09:58:52;100107.03;;;21.15;100.00
36062;BME280;22123;52.412;20.970;2023-07-29T10:01:18;100119.81;;;21.27;100.00
36062;BME280;22123;52.412;20.970;2023-07-29T10:03:44;100129.63;;;21.45;100.00
36062;BME280;22123;52.412;20.970;2023-07-29T10:06:11;100126.22;;;21.54;100.00
36062;BME280;22123;52.412;20.970;2023-07-29T10:08:39;100150.88;;;21.77;100.00
36062;BME280;22123;52.412;20.970;2023-07-29T10:11:10;100128.72;;;21.56;100.00
36062;BME280;22123;52.412;20.970;2023-07-29T10:13:37;100141.22;;;21.69;100.00
36062;BME280;22123;52.412;20.970;2023-07-29T10:16:03;100129.50;;;21.74;100.00
36062;BME280;22123;52.412;20.970;2023-07-29T10:18:30;100139.53;;;22.12;100.00
36062;BME280;22123;52.412;20.970;2023-07-29T10:20:58;100125.16;;;22.27;100.00
36062;BME280;22123;52.412;20.970;2023-07-29T10:23:25;100138.09;;;22.86;100.00
36062;BME280;22123;52.412;20.970;2023-07-29T10:26:05;100120.69;;;23.46;100.00
36062;BME280;22123;52.412;20.970;2023-07-29T10:28:37;100138.69;;;23.79;100.00
36062;BME280;22123;52.412;20.970;2023-07-29T10:31:05;100120.41;;;24.16;100.00
36062;BME280;22123;52.412;20.970;2023-07-29T10:33:33;100117.47;;;24.99;100.00
36062;BME280;22123;52.412;20.970;2023-07-29T10:36:00;100101.91;;;25.71;100.00
36062;BME280;22123;52.412;20.970;2023-07-29T10:38:26;100118.50;;;26.60;100.00
36062;BME280;22123;52.412;20.970;2023-07-29T10:40:55;100113.53;;;27.26;100.00
36062;BME280;22123;52.412;20.970;2023-07-29T10:43:27;100121.63;;;28.33;100.00
36062;BME280;22123;52.412;20.970;2023-07-29T10:48:57;99830.94;;;29.17;100.00
36062;BME280;22123;52.412;20.970;2023-07-29T10:51:30;100114.78;;;31.66;84.82
36062;BME280;22123;52.412;20.970;2023-07-29T10:54:14;100111.97;;;32.68;79.92
36062;BME280;22123;52.412;20.970;2023-07-29T10:56:43;100088.44;;;33.04;70.81
36062;BME280;22123;52.412;20.970;2023-07-29T11:01:40;100078.69;;;33.27;57.65
36062;BME280;22123;52.412;20.970;2023-07-29T11:04:28;100089.50;;;32.38;57.04
36062;BME280;22123;52.412;20.970;2023-07-29T11:12:45;100104.56;;;33.75;53.17
36062;BME280;22123;52.412;20.970;2023-07-29T11:17:58;100106.03;;;32.78;55.51
36062;BME280;22123;52.412;20.970;2023-07-29T11:22:53;100094.94;;;32.26;51.31
36062;BME280;22123;52.412;20.970;2023-07-29T11:25:20;100076.41;;;32.12;54.21
36062;BME280;22123;52.412;20.970;2023-07-29T11:27:46;100061.31;;;31.96;55.77
36062;BME280;22123;52.412;20.970;2023-07-29T11:30:13;100073.06;;;31.66;55.13
36062;BME280;22123;52.412;20.970;2023-07-29T11:32:44;100057.91;;;31.01;64.74
36062;BME280;22123;52.412;20.970;2023-07-29T11:35:12;100065.66;;;30.90;65.10
36062;BME280;22123;52.412;20.970;2023-07-29T11:37:39;100065.31;;;30.83;65.22
36062;BME280;22123;52.412;20.970;2023-07-29T11:40:05;100066.81;;;30.58;72.87
36062;BME280;22123;52.412;20.970;2023-07-29T11:42:32;100054.16;;;30.29;76.13
36062;BME280;22123;52.412;20.970;2023-07-29T11:44:58;100032.78;;;29.79;66.02
36062;BME280;22123;52.412;20.970;2023-07-29T11:47:24;100027.19;;;29.14;68.42
36062;BME280;22123;52.412;20.970;2023-07-29T11:49:50;100025.66;;;28.09;70.70
36062;BME280;22123;52.412;20.970;2023-07-29T11:52:16;100051.88;;;27.55;74.19
36062;BME280;22123;52.412;20.970;2023-07-29T11:54:43;100032.38;;;26.93;87.93
36062;BME280;22123;52.412;20.970;2023-07-29T11:57:09;100034.19;;;26.44;90.63
36062;BME280;22123;52.412;20.970;2023-07-29T11:59:36;100007.97;;;26.07;89.04
36062;BME280;22123;52.412;20.970;2023-07-29T12:02:08;100049.16;;;25.88;86.07
36062;BME280;22123;52.412;20.970;2023-07-29T12:04:36;100046.91;;;25.34;95.05
36062;BME280;22123;52.412;20.970;2023-07-29T12:07:03;100033.72;;;25.21;97.00
36062;BME280;22123;52.412;20.970;2023-07-29T12:09:29;100018.69;;;24.93;97.73
36062;BME280;22123;52.412;20.970;2023-07-29T12:11:55;100019.22;;;24.95;100.00
36062;BME280;22123;52.412;20.970;2023-07-29T12:14:21;100026.66;;;24.79;100.00
36062;BME280;22123;52.412;20.970;2023-07-29T12:16:48;100036.06;;;24.73;100.00
36062;BME280;22123;52.412;20.970;2023-07-29T12:19:15;100022.31;;;24.62;100.00
36062;BME280;22123;52.412;20.970;2023-07-29T12:21:42;100011.56;;;24.66;100.00
36062;BME280;22123;52.412;20.970;2023-07-29T12:24:08;99995.03;;;24.56;100.00
36062;BME280;22123;52.412;20.970;2023-07-29T12:26:36;100011.81;;;24.75;100.00
36062;BME280;22123;52.412;20.970;2023-07-29T12:29:12;99992.56;;;24.70;100.00
36062;BME280;22123;52.412;20.970;2023-07-29T12:31:38;100031.06;;;24.90;100.00
36062;BME280;22123;52.412;20.970;2023-07-29T12:34:04;99993.34;;;24.91;100.00
36062;BME280;22123;52.412;20.970;2023-07-29T12:36:48;99949.38;;;24.50;100.00
36062;BME280;22123;52.412;20.970;2023-07-29T12:39:25;99994.19;;;24.86;100.00
36062;BME280;22123;52.412;20.970;2023-07-29T12:41:52;99999.16;;;24.84;100.00
36062;BME280;22123;52.412;20.970;2023-07-29T12:44:28;99981.56;;;24.70;100.00
36062;BME280;22123;52.412;20.970;2023-07-29T12:47:06;99874.91;;;23.94;100.00
36062;BME280;22123;52.412;20.970;2023-07-29T12:49:32;99988.13;;;24.79;100.00
36062;BME280;22123;52.412;20.970;2023-07-29T12:52:01;99985.94;;;24.81;100.00
36062;BME280;22123;52.412;20.970;2023-07-29T12:54:53;100010.13;;;24.94;100.00